Time;durP1;ratioP1;P1;durP2;ratioP2;P2;SDS_P1;SDS_P2;PMS_P1;PMS_P2;Temp;Humidity;BMP_temperature;BMP_pressure;BME280_temperature;BME280_humidity;BME280_pressure;Samples;Min_cycle;Max_cycle;Signal;HPM_P1;HPM_P2
2021/10/23 00:02:09;;;;;;;21.55;12.43;;;;;;;8.14;100.00;102371.84;5132116;29;20036;-70
2021/10/23 00:04:40;;;;;;;18.40;11.50;;;;;;;8.19;100.00;102377.72;5131819;29;20036;-70
2021/10/23 00:07:11;;;;;;;22.75;12.48;;;;;;;8.21;100.00;102378.47;5132492;29;20111;-70
2021/10/23 00:09:43;;;;;;;19.30;12.35;;;;;;;8.24;100.00;102373.09;5133025;29;20028;-70
2021/10/23 00:12:14;;;;;;;20.25;12.98;;;;;;;8.26;100.00;102363.44;5131565;29;20040;-70
2021/10/23 00:14:45;;;;;;;16.02;12.30;;;;;;;8.27;100.00;102371.19;5133605;29;20216;-69
2021/10/23 00:17:17;;;;;;;18.05;13.32;;;;;;;8.27;100.00;102378.16;5133201;29;20031;-70
2021/10/23 00:19:48;;;;;;;18.92;13.13;;;;;;;8.30;100.00;102388.47;5131426;29;20118;-70
2021/10/23 00:22:19;;;;;;;19.92;14.27;;;;;;;8.35;100.00;102390.84;5132143;29;20514;-70
2021/10/23 00:24:51;;;;;;;20.35;14.15;;;;;;;8.38;100.00;102391.56;5133172;29;20139;-70
2021/10/23 00:27:22;;;;;;;18.85;15.20;;;;;;;8.40;100.00;102391.47;5131261;29;20477;-70
2021/10/23 00:29:54;;;;;;;19.52;15.23;;;;;;;8.41;100.00;102398.38;5130642;29;20055;-70
2021/10/23 00:32:26;;;;;;;23.67;14.75;;;;;;;8.21;100.00;102384.53;5132213;29;20081;-70
2021/10/23 00:34:58;;;;;;;21.52;15.20;;;;;;;8.37;100.00;102400.31;5132921;29;20024;-70
2021/10/23 00:37:29;;;;;;;24.25;15.57;;;;;;;8.50;100.00;102406.59;5131711;29;20035;-70
2021/10/23 00:40:00;;;;;;;20.95;15.60;;;;;;;8.55;100.00;102406.34;5132476;29;20130;-70
2021/10/23 00:42:34;;;;;;;20.60;15.68;;;;;;;8.57;100.00;102408.91;5130166;29;20028;-70
2021/10/23 00:45:06;;;;;;;24.45;16.30;;;;;;;8.61;100.00;102405.22;5132852;29;20035;-70
2021/10/23 00:47:37;;;;;;;21.10;16.20;;;;;;;8.61;100.00;102403.44;5132605;29;20034;-69
2021/10/23 00:50:08;;;;;;;20.05;17.00;;;;;;;8.61;100.00;102407.81;5131583;29;20027;-70
2021/10/23 00:52:40;;;;;;;19.08;15.48;;;;;;;8.62;100.00;102412.97;5131843;29;20035;-70
2021/10/23 00:55:12;;;;;;;21.88;15.93;;;;;;;8.59;100.00;102410.50;5131944;29;20732;-70
2021/10/23 00:57:43;;;;;;;19.75;16.27;;;;;;;8.62;100.00;102419.97;5133366;29;20114;-70
2021/10/23 01:00:15;;;;;;;20.85;16.40;;;;;;;8.62;100.00;102409.50;5131340;29;20032;-70
2021/10/23 01:02:46;;;;;;;20.77;16.65;;;;;;;8.60;100.00;102411.34;5132077;29;20023;-69
2021/10/23 01:05:18;;;;;;;22.10;15.90;;;;;;;8.59;100.00;102402.66;5131709;29;20485;-70
2021/10/23 01:07:49;;;;;;;21.30;16.23;;;;;;;8.56;100.00;102413.28;5130800;29;20111;-70
2021/10/23 01:10:20;;;;;;;22.88;17.15;;;;;;;8.55;100.00;102413.34;5131605;29;20031;-69
2021/10/23 01:12:52;;;;;;;21.63;16.23;;;;;;;8.51;100.00;102402.22;5132141;29;20519;-69
2021/10/23 01:15:29;;;;;;;24.83;17.52;;;;;;;8.61;100.00;102403.44;5131325;29;20047;-69
2021/10/23 01:18:03;;;;;;;22.80;16.63;;;;;;;8.55;100.00;102400.28;5131816;29;20401;-69
2021/10/23 01:20:34;;;;;;;25.23;17.35;;;;;;;8.53;100.00;102400.38;5132028;29;20031;-69
2021/10/23 01:23:06;;;;;;;24.13;17.02;;;;;;;8.51;100.00;102403.06;5132010;29;20098;-69
2021/10/23 01:25:37;;;;;;;22.23;17.05;;;;;;;8.52;100.00;102404.78;5129649;29;20107;-69
2021/10/23 01:28:08;;;;;;;24.48;17.83;;;;;;;8.53;100.00;102410.84;5132432;29;20067;-69
2021/10/23 01:30:39;;;;;;;21.30;16.80;;;;;;;8.52;100.00;102410.00;5131681;29;20552;-69
2021/10/23 01:33:11;;;;;;;26.00;17.13;;;;;;;8.44;100.00;102396.44;5132551;29;20469;-69
2021/10/23 01:35:43;;;;;;;21.00;16.52;;;;;;;8.45;100.00;102402.56;5131087;29;20505;-69
2021/10/23 01:38:14;;;;;;;21.77;17.08;;;;;;;8.45;100.00;102413.00;5131063;29;20035;-69
2021/10/23 01:40:46;;;;;;;21.42;16.60;;;;;;;8.44;100.00;102409.50;5131651;29;20035;-69
2021/10/23 01:43:17;;;;;;;21.10;16.73;;;;;;;8.40;100.00;102407.97;5131115;29;20036;-69
2021/10/23 01:45:48;;;;;;;22.05;16.40;;;;;;;8.38;100.00;102407.22;5132202;29;20035;-69
2021/10/23 01:48:19;;;;;;;21.75;15.05;;;;;;;8.34;100.00;102413.50;5131569;29;20090;-69
2021/10/23 01:50:51;;;;;;;18.02;15.45;;;;;;;8.28;100.00;102405.97;5132125;29;20026;-69
2021/10/23 01:53:22;;;;;;;19.98;16.33;;;;;;;8.24;100.00;102407.03;5130585;29;20028;-69
2021/10/23 01:55:53;;;;;;;19.00;16.10;;;;;;;8.18;100.00;102402.97;5131574;29;20382;-69
2021/10/23 01:58:24;;;;;;;24.58;17.67;;;;;;;8.07;100.00;102407.03;5131780;29;20110;-69
2021/10/23 02:00:56;;;;;;;21.35;17.00;;;;;;;8.12;100.00;102405.03;5128107;29;20681;-70
2021/10/23 02:03:28;;;;;;;21.95;16.52;;;;;;;8.04;100.00;102395.81;5131690;29;20056;-69
2021/10/23 02:05:59;;;;;;;19.17;16.08;;;;;;;8.08;100.00;102399.13;5130317;29;20028;-69
2021/10/23 02:08:31;;;;;;;20.20;16.50;;;;;;;7.99;100.00;102405.66;5129855;29;20031;-69
2021/10/23 02:11:02;;;;;;;20.58;16.95;;;;;;;7.79;100.00;102398.78;5131725;28;20035;-69
2021/10/23 02:13:34;;;;;;;21.50;15.95;;;;;;;7.75;100.00;102391.19;5134493;29;20134;-69
2021/10/23 02:16:06;;;;;;;21.23;17.48;;;;;;;7.72;100.00;102383.50;5134465;29;20052;-69
2021/10/23 02:18:38;;;;;;;21.83;16.70;;;;;;;7.68;100.00;102390.63;5135011;29;20047;-69
2021/10/23 02:21:11;;;;;;;25.85;18.73;;;;;;;7.71;100.00;102389.63;5135318;29;20446;-69
2021/10/23 02:23:42;;;;;;;22.83;17.73;;;;;;;7.71;100.00;102387.88;5135099;29;20038;-69
2021/10/23 02:26:14;;;;;;;25.35;17.95;;;;;;;7.69;100.00;102387.13;5132989;29;20035;-69
2021/10/23 02:28:45;;;;;;;28.95;18.92;;;;;;;7.72;100.00;102386.94;5133927;29;20036;-70
2021/10/23 02:31:16;;;;;;;27.50;19.63;;;;;;;7.67;100.00;102385.47;5134844;29;20027;-69
2021/10/23 02:33:48;;;;;;;24.35;19.05;;;;;;;7.63;100.00;102389.16;5135288;29;20027;-69
2021/10/23 02:36:19;;;;;;;26.13;19.63;;;;;;;7.61;100.00;102396.19;5134919;29;20119;-69
2021/10/23 02:38:51;;;;;;;24.23;19.10;;;;;;;7.57;100.00;102396.34;5134678;29;20039;-69
2021/10/23 02:41:24;;;;;;;25.83;20.15;;;;;;;7.53;100.00;102388.75;5134430;29;20031;-69
2021/10/23 02:43:56;;;;;;;24.98;19.75;;;;;;;7.60;100.00;102402.34;5134380;29;20028;-69
2021/10/23 02:46:27;;;;;;;25.55;19.70;;;;;;;7.59;100.00;102385.00;5135535;29;20045;-69
2021/10/23 02:48:59;;;;;;;25.98;20.60;;;;;;;7.49;100.00;102385.44;5134106;29;20059;-69
2021/10/23 02:51:30;;;;;;;24.77;18.85;;;;;;;7.53;100.00;102401.78;5134246;29;20032;-69
2021/10/23 02:54:02;;;;;;;25.38;21.50;;;;;;;7.54;100.00;102404.34;5134192;29;20140;-69
2021/10/23 02:56:33;;;;;;;23.27;20.40;;;;;;;7.59;100.00;102400.66;5135199;29;20030;-70
2021/10/23 02:59:05;;;;;;;27.75;19.52;;;;;;;7.66;100.00;102396.84;5132693;29;20027;-69
2021/10/23 03:01:36;;;;;;;27.45;20.65;;;;;;;7.87;100.00;102406.22;5134503;29;20031;-69
2021/10/23 03:04:08;;;;;;;26.80;20.92;;;;;;;7.74;100.00;102405.16;5133628;29;20027;-69
2021/10/23 03:06:43;;;;;;;25.48;20.25;;;;;;;7.73;100.00;102414.75;5133639;29;20023;-69
2021/10/23 03:09:16;;;;;;;23.65;19.75;;;;;;;7.71;100.00;102410.50;5134470;29;20031;-69
2021/10/23 03:11:47;;;;;;;27.15;19.67;;;;;;;7.68;100.00;102395.84;5133782;29;20493;-69
2021/10/23 03:14:18;;;;;;;26.23;21.48;;;;;;;7.67;100.00;102404.59;5133907;29;20067;-69
2021/10/23 03:16:50;;;;;;;23.50;19.93;;;;;;;7.67;100.00;102419.41;5133503;29;20528;-69
2021/10/23 03:19:22;;;;;;;29.73;20.90;;;;;;;7.61;100.00;102412.69;5134489;29;20032;-69
2021/10/23 03:21:53;;;;;;;28.58;21.17;;;;;;;7.62;100.00;102410.94;5134005;29;20035;-69
2021/10/23 03:24:24;;;;;;;28.52;21.98;;;;;;;7.61;100.00;102417.06;5132997;29;20039;-69
2021/10/23 03:26:56;;;;;;;27.98;20.85;;;;;;;7.59;100.00;102416.31;5134496;29;20036;-70
2021/10/23 03:29:27;;;;;;;27.42;20.48;;;;;;;7.54;100.00;102419.97;5131728;29;20027;-70
2021/10/23 03:31:58;;;;;;;27.80;21.15;;;;;;;7.56;100.00;102427.72;5132308;29;20063;-70
2021/10/23 03:34:29;;;;;;;28.58;20.95;;;;;;;7.58;100.00;102436.34;5132290;29;20071;-70
2021/10/23 03:37:01;;;;;;;28.92;21.42;;;;;;;7.64;100.00;102429.97;5134021;29;20097;-71
2021/10/23 03:39:32;;;;;;;30.92;21.30;;;;;;;7.73;100.00;102429.56;5134584;29;20031;-70
2021/10/23 03:42:03;;;;;;;44.55;25.25;;;;;;;7.83;100.00;102443.81;5132496;28;20814;-70
2021/10/23 03:44:35;;;;;;;62.97;25.55;;;;;;;7.91;100.00;102440.84;5133815;29;20105;-70
2021/10/23 03:47:06;;;;;;;48.10;26.17;;;;;;;8.01;100.00;102439.50;5133897;29;20086;-72
2021/10/23 03:49:37;;;;;;;48.13;25.13;;;;;;;8.02;100.00;102441.19;5132064;29;20035;-70
2021/10/23 03:52:09;;;;;;;65.32;25.45;;;;;;;8.03;100.00;102442.88;5133557;29;20020;-71
2021/10/23 03:54:41;;;;;;;64.20;24.65;;;;;;;8.03;100.00;102448.94;5133525;29;20032;-73
2021/10/23 03:57:12;;;;;;;49.85;24.70;;;;;;;8.05;100.00;102441.03;5133560;29;20040;-72
2021/10/23 03:59:44;;;;;;;77.03;24.45;;;;;;;8.04;100.00;102434.97;5132510;29;20528;-72
2021/10/23 04:02:15;;;;;;;50.33;25.30;;;;;;;8.07;100.00;102444.44;5131188;29;20039;-70
2021/10/23 04:04:46;;;;;;;52.25;22.98;;;;;;;8.14;100.00;102451.03;5131338;29;20043;-69
2021/10/23 04:07:18;;;;;;;40.85;22.27;;;;;;;8.16;100.00;102454.41;5132852;29;20046;-69
2021/10/23 04:09:49;;;;;;;55.17;22.98;;;;;;;8.16;100.00;102453.56;5133422;29;20030;-71
2021/10/23 04:12:20;;;;;;;44.13;24.38;;;;;;;8.18;100.00;102454.31;5132345;29;20061;-70
2021/10/23 04:14:53;;;;;;;40.17;22.73;;;;;;;8.20;100.00;102449.88;5133305;29;20422;-72
2021/10/23 04:17:24;;;;;;;40.90;23.63;;;;;;;8.24;100.00;102446.22;5132783;29;20035;-70
2021/10/23 04:19:55;;;;;;;36.25;22.58;;;;;;;8.24;100.00;102448.81;5132045;29;20035;-73
2021/10/23 04:22:27;;;;;;;39.13;22.30;;;;;;;8.27;100.00;102451.28;5132182;29;20023;-69
2021/10/23 04:24:58;;;;;;;37.63;22.60;;;;;;;8.27;100.00;102456.50;5132677;29;20028;-71
2021/10/23 04:27:29;;;;;;;43.15;23.65;;;;;;;8.29;100.00;102460.72;5132983;29;20031;-69
2021/10/23 04:30:01;;;;;;;47.38;24.33;;;;;;;8.29;100.00;102454.66;5132488;29;20039;-69
2021/10/23 04:32:32;;;;;;;41.50;23.83;;;;;;;8.25;100.00;102456.56;5132217;29;20055;-71
2021/10/23 04:35:04;;;;;;;47.50;23.17;;;;;;;8.23;100.00;102457.56;5130541;28;20042;-73
2021/10/23 04:37:35;;;;;;;43.75;22.98;;;;;;;8.23;100.00;102449.75;5133554;29;20090;-69
2021/10/23 04:40:08;;;;;;;40.28;23.75;;;;;;;8.26;100.00;102447.81;5132341;29;20035;-70
2021/10/23 04:42:42;;;;;;;46.03;23.58;;;;;;;8.29;100.00;102449.41;5131479;29;20115;-70
2021/10/23 04:45:13;;;;;;;49.38;23.63;;;;;;;8.27;100.00;102453.91;5131967;29;20039;-69
2021/10/23 04:47:44;;;;;;;46.97;24.45;;;;;;;8.27;100.00;102444.28;5132718;29;20046;-70
2021/10/23 04:50:15;;;;;;;45.67;24.55;;;;;;;8.26;100.00;102447.00;5132781;29;20089;-72
2021/10/23 04:52:47;;;;;;;47.85;23.98;;;;;;;8.25;100.00;102446.13;5131151;29;20027;-70
2021/10/23 04:55:18;;;;;;;40.83;23.63;;;;;;;8.24;100.00;102444.44;5132066;29;20042;-71
2021/10/23 04:57:49;;;;;;;32.67;22.67;;;;;;;8.21;100.00;102447.19;5133134;29;20073;-70
2021/10/23 05:00:21;;;;;;;35.38;24.10;;;;;;;8.22;100.00;102445.41;5131851;29;20130;-69
2021/10/23 05:02:52;;;;;;;34.92;23.30;;;;;;;8.23;100.00;102447.97;5130621;29;20848;-72
2021/10/23 05:05:23;;;;;;;33.63;22.67;;;;;;;8.22;100.00;102458.47;5131888;29;20036;-70
2021/10/23 05:07:55;;;;;;;41.38;23.52;;;;;;;8.24;100.00;102464.47;5131403;29;20331;-69
2021/10/23 05:10:26;;;;;;;37.53;25.17;;;;;;;8.25;100.00;102460.94;5130813;29;20030;-73
2021/10/23 05:12:57;;;;;;;34.33;23.75;;;;;;;8.29;100.00;102454.66;5132346;29;20098;-69
2021/10/23 05:15:28;;;;;;;37.67;24.70;;;;;;;8.28;100.00;102459.03;5131730;29;20043;-70
2021/10/23 05:18:00;;;;;;;36.50;24.90;;;;;;;8.33;100.00;102465.78;5132485;29;20122;-72
2021/10/23 05:20:31;;;;;;;41.70;24.58;;;;;;;8.34;100.00;102465.72;5131088;29;20027;-70
2021/10/23 05:23:03;;;;;;;40.08;23.17;;;;;;;8.31;100.00;102458.03;5131814;29;20031;-70
2021/10/23 05:25:34;;;;;;;38.22;24.35;;;;;;;8.31;100.00;102459.81;5132174;29;20032;-69
2021/10/23 05:28:05;;;;;;;39.58;25.20;;;;;;;8.30;100.00;102464.19;5132245;29;20489;-70
2021/10/23 05:30:36;;;;;;;38.42;25.42;;;;;;;8.29;100.00;102465.09;5129720;29;20296;-72
2021/10/23 05:33:08;;;;;;;41.45;25.48;;;;;;;8.23;100.00;102458.41;5132259;29;20051;-69
2021/10/23 05:35:39;;;;;;;38.47;24.58;;;;;;;8.24;100.00;102470.53;5132490;29;20027;-70
2021/10/23 05:38:10;;;;;;;36.65;24.95;;;;;;;8.21;100.00;102465.47;5131028;29;20027;-71
2021/10/23 05:40:42;;;;;;;38.13;25.80;;;;;;;8.18;100.00;102467.38;5130260;29;20408;-70
2021/10/23 05:43:13;;;;;;;34.03;24.65;;;;;;;8.14;100.00;102468.44;5131937;29;20588;-71
2021/10/23 05:45:44;;;;;;;36.85;24.85;;;;;;;8.10;100.00;102461.69;5131892;29;20130;-70
2021/10/23 05:48:16;;;;;;;41.78;24.65;;;;;;;8.07;100.00;102472.28;5136580;29;20074;-71
2021/10/23 05:50:47;;;;;;;33.15;24.27;;;;;;;8.04;100.00;102478.50;5132642;29;21198;-70
2021/10/23 05:53:19;;;;;;;37.25;24.83;;;;;;;7.98;100.00;102477.03;5134796;29;20569;-69
2021/10/23 05:55:50;;;;;;;45.47;27.42;;;;;;;8.02;100.00;102491.63;5136351;29;20031;-73
2021/10/23 05:58:21;;;;;;;49.63;25.02;;;;;;;7.98;100.00;102492.69;5135778;29;20035;-69
2021/10/23 06:00:57;;;;;;;49.60;25.17;;;;;;;7.95;100.00;102491.97;5132989;29;20085;-70
2021/10/23 06:03:30;;;;;;;52.55;27.23;;;;;;;7.96;100.00;102502.38;5125840;29;20036;-73
2021/10/23 06:06:06;;;;;;;92.63;28.83;;;;;;;8.03;100.00;102506.38;5135480;29;20031;-70
2021/10/23 06:08:37;;;;;;;89.78;28.77;;;;;;;7.93;100.00;102504.28;5136016;29;20031;-69
2021/10/23 06:11:09;;;;;;;140.63;29.20;;;;;;;7.95;100.00;102512.84;5134417;29;20544;-69
2021/10/23 06:13:40;;;;;;;129.68;29.95;;;;;;;7.97;100.00;102516.25;5134809;29;20019;-70
2021/10/23 06:16:11;;;;;;;113.38;28.95;;;;;;;8.00;100.00;102521.34;5134658;29;20059;-70
2021/10/23 06:18:43;;;;;;;91.53;27.23;;;;;;;8.00;100.00;102524.78;5134969;29;20042;-71
2021/10/23 06:21:14;;;;;;;144.32;30.63;;;;;;;8.02;100.00;102528.16;5134549;29;20106;-73
2021/10/23 06:23:46;;;;;;;82.18;28.30;;;;;;;8.03;100.00;102524.66;5135388;29;20051;-70
2021/10/23 06:26:18;;;;;;;146.00;29.83;;;;;;;8.06;100.00;102531.47;5133052;29;20032;-72
2021/10/23 06:28:49;;;;;;;121.53;29.17;;;;;;;8.09;100.00;102533.09;5135020;29;20675;-72
2021/10/23 06:31:20;;;;;;;145.30;28.98;;;;;;;8.07;100.00;102537.53;5134313;29;20031;-69
2021/10/23 06:33:52;;;;;;;82.55;26.52;;;;;;;8.10;100.00;102540.00;5134575;29;20103;-70
2021/10/23 06:36:23;;;;;;;60.72;25.35;;;;;;;8.10;100.00;102542.63;5134005;29;20043;-71
2021/10/23 06:38:54;;;;;;;95.57;26.02;;;;;;;8.15;100.00;102538.88;5135025;29;20098;-70
2021/10/23 13:38:12;;;;;;;12.00;9.65;;;;;;;13.54;100.00;102653.72;5046157;29;20423;-69
2021/10/23 13:40:44;;;;;;;14.60;9.10;;;;;;;13.54;100.00;102649.28;5055548;29;20048;-70
2021/10/23 13:43:15;;;;;;;12.80;9.30;;;;;;;13.56;100.00;102657.06;5057756;29;20081;-69
2021/10/23 13:45:48;;;;;;;12.77;9.02;;;;;;;13.64;100.00;102646.88;5060925;29;20021;-70
2021/10/23 13:48:20;;;;;;;14.43;9.30;;;;;;;13.66;100.00;102649.41;5046228;29;20038;-71
2021/10/23 13:50:51;;;;;;;13.48;8.90;;;;;;;13.61;100.00;102647.09;5048533;29;20071;-71
2021/10/23 13:53:23;;;;;;;12.60;9.02;;;;;;;13.63;100.00;102656.56;5046581;29;20056;-69
2021/10/23 13:55:54;;;;;;;13.63;8.55;;;;;;;13.62;100.00;102657.50;5049561;29;20033;-71
2021/10/23 13:58:25;;;;;;;13.57;8.60;;;;;;;13.62;100.00;102659.31;5050246;29;20030;-71
2021/10/23 14:00:57;;;;;;;11.73;8.10;;;;;;;13.74;100.00;102662.88;5049441;29;20082;-70
2021/10/23 14:03:28;;;;;;;13.20;8.45;;;;;;;13.76;100.00;102655.72;5049324;29;20388;-71
2021/10/23 14:05:59;;;;;;;9.50;7.50;;;;;;;13.86;100.00;102656.75;5050714;29;20034;-71
2021/10/23 14:08:31;;;;;;;12.77;7.88;;;;;;;13.96;100.00;102662.22;5054977;29;20491;-70
2021/10/23 14:11:02;;;;;;;11.13;7.32;;;;;;;14.02;100.00;102656.53;5050174;29;20065;-71
2021/10/23 14:13:34;;;;;;;11.35;6.40;;;;;;;14.07;100.00;102659.69;5053977;29;20032;-70
2021/10/23 14:16:06;;;;;;;10.32;6.55;;;;;;;14.10;100.00;102662.94;5056631;29;20113;-71
2021/10/23 14:18:39;;;;;;;13.38;7.45;;;;;;;14.07;100.00;102649.16;5054953;29;20033;-70
2021/10/23 14:21:11;;;;;;;9.20;5.97;;;;;;;14.07;100.00;102652.63;5051718;29;20049;-71
2021/10/23 14:23:43;;;;;;;10.02;6.70;;;;;;;14.11;100.00;102654.09;5054679;29;20162;-69
2021/10/23 14:26:17;;;;;;;12.05;6.13;;;;;;;14.16;100.00;102642.38;5055882;29;20546;-71
2021/10/23 14:28:49;;;;;;;8.52;5.80;;;;;;;14.10;100.00;102651.56;5052286;29;20124;-71
2021/10/23 14:31:21;;;;;;;9.00;5.38;;;;;;;14.11;100.00;102656.72;5051790;29;20187;-69
2021/10/23 14:33:52;;;;;;;6.75;5.18;;;;;;;14.11;100.00;102654.09;5054739;29;20050;-70
2021/10/23 14:36:25;;;;;;;12.52;6.38;;;;;;;14.07;100.00;102657.88;5054263;29;20073;-71
2021/10/23 14:38:58;;;;;;;8.70;5.40;;;;;;;14.14;100.00;102652.19;5055771;29;20052;-70
2021/10/23 14:41:30;;;;;;;8.98;5.47;;;;;;;14.08;100.00;102654.28;5042323;29;20156;-70
2021/10/23 14:44:01;;;;;;;9.10;5.47;;;;;;;14.04;100.00;102652.00;5041840;29;20029;-71
2021/10/23 14:46:32;;;;;;;8.10;5.22;;;;;;;14.02;100.00;102651.28;5054367;29;20029;-70
2021/10/23 14:49:04;;;;;;;9.20;5.32;;;;;;;13.97;100.00;102653.38;5054480;29;20029;-69
2021/10/23 14:51:35;;;;;;;9.80;5.22;;;;;;;14.07;100.00;102649.97;5052303;29;20424;-71
2021/10/23 14:54:06;;;;;;;12.88;6.10;;;;;;;14.01;100.00;102649.56;5047052;29;20032;-71
2021/10/23 14:56:38;;;;;;;10.18;6.10;;;;;;;14.02;100.00;102648.63;5050634;29;20038;-70
2021/10/23 14:59:10;;;;;;;7.68;5.50;;;;;;;13.92;100.00;102653.69;5048657;29;20033;-70
2021/10/23 15:01:41;;;;;;;10.48;6.25;;;;;;;13.93;100.00;102644.00;5042669;29;20038;-71
2021/10/23 15:04:14;;;;;;;8.68;5.93;;;;;;;13.92;100.00;102644.97;5050896;29;20036;-69
2021/10/23 15:06:45;;;;;;;9.80;5.68;;;;;;;13.88;100.00;102645.16;5050715;29;20102;-71
2021/10/23 15:09:19;;;;;;;9.88;5.97;;;;;;;13.84;100.00;102648.97;5051655;29;20246;-70
2021/10/23 15:11:50;;;;;;;10.07;5.38;;;;;;;13.80;100.00;102647.50;5038470;29;20042;-70
2021/10/23 15:14:22;;;;;;;8.45;5.50;;;;;;;13.78;100.00;102646.75;5050899;29;20033;-69
2021/10/23 15:16:53;;;;;;;10.23;5.38;;;;;;;13.75;100.00;102641.72;5048834;29;20530;-71
2021/10/23 15:19:24;;;;;;;8.73;5.35;;;;;;;13.77;100.00;102645.06;5044985;29;20482;-70
2021/10/23 15:21:56;;;;;;;9.93;5.80;;;;;;;13.72;100.00;102649.84;5045269;29;20038;-70
2021/10/23 15:24:27;;;;;;;10.10;6.32;;;;;;;13.68;100.00;102642.25;5052252;29;20435;-70
2021/10/23 15:26:58;;;;;;;9.88;5.53;;;;;;;13.65;100.00;102645.09;5051392;29;20431;-70
2021/10/23 15:29:30;;;;;;;10.38;6.40;;;;;;;13.63;100.00;102645.19;5054679;29;20398;-70
2021/10/23 15:32:01;;;;;;;9.65;5.63;;;;;;;13.62;100.00;102649.59;5051073;29;20467;-70
2021/10/23 15:34:34;;;;;;;13.15;6.80;;;;;;;13.58;100.00;102642.88;5051123;29;20518;-70
2021/10/23 15:37:10;;;;;;;12.48;5.82;;;;;;;13.54;100.00;102643.19;5046281;29;20380;-69
2021/10/23 15:39:42;;;;;;;11.15;6.35;;;;;;;13.52;100.00;102639.81;5051966;29;20033;-70
2021/10/23 15:42:16;;;;;;;9.18;5.68;;;;;;;13.51;100.00;102641.59;5049611;29;20089;-70
2021/10/23 15:44:48;;;;;;;11.88;6.35;;;;;;;13.44;100.00;102639.50;5052536;29;20025;-71
2021/10/23 15:47:20;;;;;;;13.77;7.20;;;;;;;13.39;100.00;102639.81;5054894;29;20036;-70
2021/10/23 15:49:51;;;;;;;11.48;6.43;;;;;;;13.35;100.00;102643.59;5053307;29;20058;-69
2021/10/23 15:52:24;;;;;;;13.23;6.20;;;;;;;13.29;100.00;102639.59;5039359;29;20037;-70
2021/10/23 15:54:55;;;;;;;11.93;6.78;;;;;;;13.29;100.00;102644.00;5047543;29;20033;-70
2021/10/23 15:57:27;;;;;;;12.43;7.15;;;;;;;13.17;100.00;102635.13;5048456;29;20030;-70
2021/10/23 15:59:58;;;;;;;11.63;7.07;;;;;;;13.16;100.00;102638.72;5039890;29;20037;-71
2021/10/23 16:02:29;;;;;;;10.80;6.97;;;;;;;13.18;100.00;102643.84;5044165;29;20071;-71
2021/10/23 16:05:01;;;;;;;10.75;7.15;;;;;;;13.14;100.00;102638.81;5045527;29;20037;-70
2021/10/23 16:07:36;;;;;;;12.63;7.47;;;;;;;13.09;100.00;102651.44;5039043;29;20395;-69
2021/10/23 16:10:09;;;;;;;12.45;7.22;;;;;;;12.98;100.00;102648.66;5034412;29;20488;-71
2021/10/23 16:12:40;;;;;;;14.45;7.65;;;;;;;12.97;100.00;102651.41;5033133;29;20025;-70
2021/10/23 16:15:11;;;;;;;14.30;7.57;;;;;;;12.91;100.00;102648.22;5046531;29;20037;-70
2021/10/23 16:17:43;;;;;;;13.23;6.78;;;;;;;12.85;100.00;102645.16;5034624;29;20439;-69
2021/10/23 16:20:14;;;;;;;14.00;8.13;;;;;;;12.82;100.00;102648.84;5047784;29;20061;-70
2021/10/23 16:22:45;;;;;;;19.85;11.25;;;;;;;12.70;100.00;102654.06;5046049;29;20460;-71
2021/10/23 16:25:16;;;;;;;18.50;12.35;;;;;;;12.58;100.00;102645.19;5047603;29;20048;-71
2021/10/23 16:27:48;;;;;;;14.50;10.63;;;;;;;12.46;100.00;102654.69;5036388;29;20046;-71
2021/10/23 16:30:19;;;;;;;15.20;8.65;;;;;;;12.29;100.00;102650.50;5047744;29;20045;-69
2021/10/23 16:32:51;;;;;;;16.20;9.07;;;;;;;12.18;100.00;102647.72;5045091;29;20351;-71
2021/10/23 16:35:22;;;;;;;15.88;10.23;;;;;;;12.03;100.00;102648.66;5043093;29;20029;-70
2021/10/23 16:37:53;;;;;;;15.65;9.48;;;;;;;11.92;100.00;102651.94;5047541;29;20050;-69
2021/10/23 16:40:25;;;;;;;14.00;9.30;;;;;;;11.82;100.00;102654.28;5043264;29;20030;-71
2021/10/23 16:42:56;;;;;;;17.15;9.45;;;;;;;11.76;100.00;102652.03;5044691;29;20049;-70
2021/10/23 16:45:28;;;;;;;15.23;8.38;;;;;;;11.69;100.00;102661.19;5044280;29;20400;-70
2021/10/23 16:47:59;;;;;;;14.10;8.10;;;;;;;11.63;100.00;102661.56;5044495;29;20445;-70
2021/10/23 16:50:31;;;;;;;16.10;8.82;;;;;;;11.51;100.00;102657.06;5048003;29;21007;-69
2021/10/23 16:53:02;;;;;;;13.43;7.95;;;;;;;11.44;100.00;102664.47;5035238;29;20041;-71
2021/10/23 16:55:33;;;;;;;34.50;23.73;;;;;;;11.40;100.00;102660.31;5046166;29;20041;-69
2021/10/23 16:58:05;;;;;;;19.35;14.05;;;;;;;11.34;100.00;102661.53;5051444;29;20402;-70
2021/10/23 17:00:36;;;;;;;20.67;12.65;;;;;;;11.28;100.00;102655.78;5051170;29;20026;-70
2021/10/23 17:03:08;;;;;;;16.25;9.98;;;;;;;11.25;100.00;102654.22;5052308;29;20780;-71
2021/10/23 17:05:39;;;;;;;11.95;8.70;;;;;;;11.17;100.00;102649.41;5053655;29;20037;-70
2021/10/23 17:08:10;;;;;;;16.05;9.00;;;;;;;11.11;100.00;102657.63;5047225;29;20038;-69
2021/10/23 17:10:42;;;;;;;14.70;7.75;;;;;;;11.15;100.00;102653.91;5051539;29;20512;-71
2021/10/23 17:13:13;;;;;;;13.15;8.02;;;;;;;11.14;100.00;102661.88;5055017;29;20030;-70
2021/10/23 17:15:45;;;;;;;16.13;12.52;;;;;;;11.11;100.00;102659.41;5050215;29;20032;-71
2021/10/23 17:18:16;;;;;;;13.75;11.00;;;;;;;11.03;100.00;102654.63;5050865;29;20153;-71
2021/10/23 17:20:47;;;;;;;14.20;9.80;;;;;;;11.01;100.00;102648.59;5052244;29;20471;-71
2021/10/23 17:23:28;;;;;;;12.77;9.63;;;;;;;10.96;100.00;102653.28;5054163;29;20041;-70
2021/10/23 17:26:01;;;;;;;14.07;8.52;;;;;;;10.90;100.00;102657.09;5052126;29;20037;-71
2021/10/23 17:28:33;;;;;;;15.85;8.98;;;;;;;10.83;100.00;102660.97;5050173;29;20033;-71
2021/10/23 17:31:04;;;;;;;11.75;8.63;;;;;;;10.77;100.00;102658.72;5051331;29;20547;-71
2021/10/23 17:33:35;;;;;;;14.07;9.38;;;;;;;10.65;100.00;102656.81;5055307;29;20037;-69
2021/10/23 17:36:07;;;;;;;12.68;9.30;;;;;;;10.66;100.00;102668.97;5050850;29;20503;-71
2021/10/23 17:38:41;;;;;;;20.58;12.60;;;;;;;10.61;100.00;102665.78;5051016;29;20034;-69
2021/10/23 17:41:12;;;;;;;20.33;13.57;;;;;;;10.57;100.00;102667.72;5052752;29;20026;-69
2021/10/23 17:43:44;;;;;;;24.10;17.58;;;;;;;10.53;100.00;102663.59;5054897;29;20093;-70
2021/10/23 17:46:16;;;;;;;21.40;16.67;;;;;;;10.56;100.00;102667.78;5051697;29;20026;-70
2021/10/23 17:48:48;;;;;;;18.42;12.82;;;;;;;10.58;100.00;102669.41;5057274;29;20052;-69
2021/10/23 17:51:19;;;;;;;15.57;11.75;;;;;;;10.45;100.00;102671.88;5057674;29;20033;-70
2021/10/23 17:53:50;;;;;;;15.15;11.43;;;;;;;10.46;100.00;102677.94;5053786;29;20116;-69
2021/10/23 17:56:22;;;;;;;14.45;10.68;;;;;;;10.51;100.00;102686.38;5045714;29;20048;-71
2021/10/23 17:58:53;;;;;;;16.02;11.82;;;;;;;10.45;100.00;102684.09;5054620;29;20471;-71
2021/10/23 18:01:25;;;;;;;18.65;11.55;;;;;;;10.47;100.00;102682.25;5054819;29;20037;-71
2021/10/23 18:03:56;;;;;;;14.68;11.50;;;;;;;10.37;100.00;102681.06;5054657;29;20025;-71
2021/10/23 18:06:28;;;;;;;15.90;11.55;;;;;;;10.34;100.00;102684.72;5056096;29;20096;-70
2021/10/23 18:08:59;;;;;;;22.77;15.02;;;;;;;10.36;100.00;102680.22;5055029;29;20093;-69
2021/10/23 18:11:31;;;;;;;20.95;15.98;;;;;;;10.38;100.00;102680.13;5056529;29;20491;-69
2021/10/23 18:14:04;;;;;;;19.15;14.65;;;;;;;10.36;100.00;102684.63;5055000;29;21072;-71
2021/10/23 18:16:47;;;;;;;17.38;14.38;;;;;;;10.40;100.00;102689.59;5060754;29;20554;-70
2021/10/23 18:19:20;;;;;;;17.77;12.77;;;;;;;10.28;100.00;102686.81;5061431;29;20041;-72
2021/10/23 18:21:51;;;;;;;17.42;14.27;;;;;;;10.30;100.00;102685.78;5054845;29;20377;-71
2021/10/23 18:24:23;;;;;;;17.77;13.60;;;;;;;10.37;100.00;102689.75;5034926;29;20030;-71
2021/10/23 18:26:54;;;;;;;20.70;15.20;;;;;;;10.31;100.00;102690.09;5054091;29;20037;-71